sensor_id;sensor_type;location;lat;lon;timestamp;pressure;altitude;pressure_sealevel;temperature;humidity
49216;BME280;45943;53.148;8.204;2023-03-17T00:00:14;101062.56;;;9.15;100.00
49216;BME280;45943;53.148;8.204;2023-03-17T00:02:42;101062.66;;;9.14;100.00
49216;BME280;45943;53.148;8.204;2023-03-17T00:05:17;101069.53;;;9.18;100.00
49216;BME280;45943;53.148;8.204;2023-03-17T00:07:49;101069.75;;;9.15;100.00
49216;BME280;45943;53.148;8.204;2023-03-17T00:10:21;101066.84;;;9.18;100.00
49216;BME280;45943;53.148;8.204;2023-03-17T00:12:50;101060.28;;;9.22;100.00
49216;BME280;45943;53.148;8.204;2023-03-17T00:15:18;101061.28;;;9.21;100.00
49216;BME280;45943;53.148;8.204;2023-03-17T00:17:46;101064.91;;;9.20;100.00
49216;BME280;45943;53.148;8.204;2023-03-17T00:20:32;101073.78;;;9.20;100.00
49216;BME280;45943;53.148;8.204;2023-03-17T00:22:58;101071.56;;;9.14;100.00
49216;BME280;45943;53.148;8.204;2023-03-17T00:25:32;101074.13;;;9.16;100.00
49216;BME280;45943;53.148;8.204;2023-03-17T00:28:00;101073.28;;;9.15;100.00
49216;BME280;45943;53.148;8.204;2023-03-17T00:30:27;101068.78;;;9.16;100.00
49216;BME280;45943;53.148;8.204;2023-03-17T00:32:54;101057.31;;;9.14;100.00
49216;BME280;45943;53.148;8.204;2023-03-17T00:35:24;101048.13;;;9.05;100.00
49216;BME280;45943;53.148;8.204;2023-03-17T00:37:52;101054.97;;;9.09;100.00
49216;BME280;45943;53.148;8.204;2023-03-17T00:40:24;101055.41;;;9.03;100.00
49216;BME280;45943;53.148;8.204;2023-03-17T00:42:53;101039.25;;;8.92;100.00
49216;BME280;45943;53.148;8.204;2023-03-17T00:45:20;101036.56;;;8.92;100.00
49216;BME280;45943;53.148;8.204;2023-03-17T00:47:48;101053.78;;;9.01;100.00
49216;BME280;45943;53.148;8.204;2023-03-17T00:50:17;101056.69;;;8.98;100.00
49216;BME280;45943;53.148;8.204;2023-03-17T00:52:47;101051.78;;;8.91;100.00
49216;BME280;45943;53.148;8.204;2023-03-17T00:55:15;101037.66;;;8.89;100.00
49216;BME280;45943;53.148;8.204;2023-03-17T00:57:41;101037.66;;;8.89;100.00
49216;BME280;45943;53.148;8.204;2023-03-17T01:02:43;101045.88;;;8.99;100.00
49216;BME280;45943;53.148;8.204;2023-03-17T01:05:10;101045.47;;;9.05;100.00
49216;BME280;45943;53.148;8.204;2023-03-17T01:07:37;101047.47;;;9.02;100.00
49216;BME280;45943;53.148;8.204;2023-03-17T01:10:09;101042.25;;;9.00;100.00
49216;BME280;45943;53.148;8.204;2023-03-17T01:12:38;101031.31;;;9.03;100.00
49216;BME280;45943;53.148;8.204;2023-03-17T01:15:05;101022.78;;;8.98;100.00
49216;BME280;45943;53.148;8.204;2023-03-17T01:17:31;101027.38;;;8.96;100.00
49216;BME280;45943;53.148;8.204;2023-03-17T01:19:58;101039.44;;;9.02;100.00
49216;BME280;45943;53.148;8.204;2023-03-17T01:22:24;101041.03;;;9.04;100.00
49216;BME280;45943;53.148;8.204;2023-03-17T01:24:50;101031.44;;;9.02;100.00
49216;BME280;45943;53.148;8.204;2023-03-17T01:27:18;101029.94;;;8.98;100.00
49216;BME280;45943;53.148;8.204;2023-03-17T01:29:44;101028.13;;;8.98;100.00
49216;BME280;45943;53.148;8.204;2023-03-17T01:32:10;101032.50;;;8.99;100.00
49216;BME280;45943;53.148;8.204;2023-03-17T01:34:37;101039.38;;;8.90;100.00
49216;BME280;45943;53.148;8.204;2023-03-17T01:37:03;101039.91;;;8.96;100.00
49216;BME280;45943;53.148;8.204;2023-03-17T01:39:29;101041.06;;;8.91;100.00
49216;BME280;45943;53.148;8.204;2023-03-17T01:41:57;101037.31;;;8.94;100.00
49216;BME280;45943;53.148;8.204;2023-03-17T01:44:25;101036.56;;;8.92;100.00
49216;BME280;45943;53.148;8.204;2023-03-17T01:46:52;101030.38;;;8.91;100.00
49216;BME280;45943;53.148;8.204;2023-03-17T01:51:57;101019.66;;;8.91;100.00
49216;BME280;45943;53.148;8.204;2023-03-17T01:56:59;101023.94;;;8.94;100.00
49216;BME280;45943;53.148;8.204;2023-03-17T01:59:33;101011.53;;;8.93;100.00
49216;BME280;45943;53.148;8.204;2023-03-17T02:02:05;101005.75;;;8.99;100.00
49216;BME280;45943;53.148;8.204;2023-03-17T02:04:35;101007.59;;;8.86;100.00
49216;BME280;45943;53.148;8.204;2023-03-17T02:07:03;101002.88;;;8.89;100.00
49216;BME280;45943;53.148;8.204;2023-03-17T02:09:30;101001.47;;;8.84;100.00
49216;BME280;45943;53.148;8.204;2023-03-17T02:11:57;100990.13;;;8.93;100.00
49216;BME280;45943;53.148;8.204;2023-03-17T02:14:26;100990.56;;;9.00;100.00
49216;BME280;45943;53.148;8.204;2023-03-17T02:16:52;100981.25;;;8.93;100.00
49216;BME280;45943;53.148;8.204;2023-03-17T02:19:18;100963.81;;;9.00;100.00
49216;BME280;45943;53.148;8.204;2023-03-17T02:21:45;100953.44;;;8.95;100.00
49216;BME280;45943;53.148;8.204;2023-03-17T02:24:19;100944.66;;;8.93;100.00
49216;BME280;45943;53.148;8.204;2023-03-17T02:26:49;100946.59;;;8.91;100.00
49216;BME280;45943;53.148;8.204;2023-03-17T02:29:19;100942.81;;;8.94;100.00
49216;BME280;45943;53.148;8.204;2023-03-17T02:31:47;100950.22;;;8.90;100.00
49216;BME280;45943;53.148;8.204;2023-03-17T02:34:13;100943.47;;;8.84;100.00
49216;BME280;45943;53.148;8.204;2023-03-17T02:36:40;100949.03;;;8.94;100.00
49216;BME280;45943;53.148;8.204;2023-03-17T02:39:06;100948.81;;;8.97;100.00
49216;BME280;45943;53.148;8.204;2023-03-17T02:41:33;100961.13;;;9.00;100.00
49216;BME280;45943;53.148;8.204;2023-03-17T02:44:00;100967.78;;;8.81;100.00
49216;BME280;45943;53.148;8.204;2023-03-17T02:46:26;100959.34;;;8.87;100.00
49216;BME280;45943;53.148;8.204;2023-03-17T02:48:52;100960.41;;;8.85;100.00
49216;BME280;45943;53.148;8.204;2023-03-17T02:51:20;100962.22;;;8.84;100.00
49216;BME280;45943;53.148;8.204;2023-03-17T02:53:46;100953.78;;;8.78;100.00
49216;BME280;45943;53.148;8.204;2023-03-17T02:56:12;100952.94;;;8.77;100.00
49216;BME280;45943;53.148;8.204;2023-03-17T02:58:38;100965.56;;;8.75;100.00
49216;BME280;45943;53.148;8.204;2023-03-17T03:01:04;100953.03;;;8.76;100.00
49216;BME280;45943;53.148;8.204;2023-03-17T03:03:30;100944.91;;;8.77;100.00
49216;BME280;45943;53.148;8.204;2023-03-17T03:05:56;100935.06;;;8.78;100.00
49216;BME280;45943;53.148;8.204;2023-03-17T03:08:23;100942.63;;;8.84;100.00
49216;BME280;45943;53.148;8.204;2023-03-17T03:10:50;100950.56;;;8.85;100.00
49216;BME280;45943;53.148;8.204;2023-03-17T03:13:16;100942.13;;;8.79;100.00
49216;BME280;45943;53.148;8.204;2023-03-17T03:15:43;100944.25;;;8.74;100.00
49216;BME280;45943;53.148;8.204;2023-03-17T03:18:09;100936.16;;;8.75;100.00
49216;BME280;45943;53.148;8.204;2023-03-17T03:20:35;100926.50;;;8.73;100.00
49216;BME280;45943;53.148;8.204;2023-03-17T03:23:01;100932.06;;;8.70;100.00
49216;BME280;45943;53.148;8.204;2023-03-17T03:25:27;100931.00;;;8.72;100.00
49216;BME280;45943;53.148;8.204;2023-03-17T03:27:53;100928.88;;;8.77;100.00
49216;BME280;45943;53.148;8.204;2023-03-17T03:30:19;100933.47;;;8.75;100.00
49216;BME280;45943;53.148;8.204;2023-03-17T03:32:45;100930.91;;;8.61;100.00
49216;BME280;45943;53.148;8.204;2023-03-17T03:35:11;100927.69;;;8.69;100.00
49216;BME280;45943;53.148;8.204;2023-03-17T03:37:37;100938.06;;;8.73;100.00
49216;BME280;45943;53.148;8.204;2023-03-17T03:40:04;100936.34;;;8.72;100.00
49216;BME280;45943;53.148;8.204;2023-03-17T03:42:32;100936.69;;;8.68;100.00
49216;BME280;45943;53.148;8.204;2023-03-17T03:44:58;100932.19;;;8.68;100.00
49216;BME280;45943;53.148;8.204;2023-03-17T03:47:24;100935.94;;;8.66;100.00
49216;BME280;45943;53.148;8.204;2023-03-17T03:49:49;100935.28;;;8.62;100.00
49216;BME280;45943;53.148;8.204;2023-03-17T03:52:16;100931.66;;;8.63;100.00
49216;BME280;45943;53.148;8.204;2023-03-17T03:54:42;100922.66;;;8.64;100.00
49216;BME280;45943;53.148;8.204;2023-03-17T03:57:08;100924.72;;;8.60;100.00
49216;BME280;45943;53.148;8.204;2023-03-17T03:59:33;100924.81;;;8.59;100.00
49216;BME280;45943;53.148;8.204;2023-03-17T04:01:59;100929.53;;;8.55;100.00
49216;BME280;45943;53.148;8.204;2023-03-17T04:04:25;100924.38;;;8.65;100.00
49216;BME280;45943;53.148;8.204;2023-03-17T04:06:51;100931.88;;;8.60;100.00
49216;BME280;45943;53.148;8.204;2023-03-17T04:09:17;100917.44;;;8.62;100.00
49216;BME280;45943;53.148;8.204;2023-03-17T04:11:43;100920.44;;;8.58;100.00
49216;BME280;45943;53.148;8.204;2023-03-17T04:14:09;100914.88;;;8.48;100.00
49216;BME280;45943;53.148;8.204;2023-03-17T04:16:35;100909.09;;;8.54;100.00
49216;BME280;45943;53.148;8.204;2023-03-17T04:19:01;100914.63;;;8.64;100.00
49216;BME280;45943;53.148;8.204;2023-03-17T04:21:27;100912.94;;;8.63;100.00
49216;BME280;45943;53.148;8.204;2023-03-17T04:23:53;100916.91;;;8.57;100.00
49216;BME280;45943;53.148;8.204;2023-03-17T04:26:19;100916.06;;;8.57;100.00
49216;BME280;45943;53.148;8.204;2023-03-17T04:28:47;100917.31;;;8.64;100.00
49216;BME280;45943;53.148;8.204;2023-03-17T04:31:14;100909.50;;;8.61;100.00
49216;BME280;45943;53.148;8.204;2023-03-17T04:33:40;100909.28;;;8.64;100.00
49216;BME280;45943;53.148;8.204;2023-03-17T04:36:07;100900.53;;;8.62;100.00
49216;BME280;45943;53.148;8.204;2023-03-17T04:38:38;100897.00;;;8.61;100.00
49216;BME280;45943;53.148;8.204;2023-03-17T04:41:04;100902.03;;;8.53;100.00
49216;BME280;45943;53.148;8.204;2023-03-17T04:43:30;100890.56;;;8.64;100.00
49216;BME280;45943;53.148;8.204;2023-03-17T04:45:56;100895.28;;;8.60;100.00
49216;BME280;45943;53.148;8.204;2023-03-17T04:48:22;100900.88;;;8.57;100.00
49216;BME280;45943;53.148;8.204;2023-03-17T04:50:48;100902.78;;;8.68;100.00
49216;BME280;45943;53.148;8.204;2023-03-17T04:53:14;100901.69;;;8.71;100.00
49216;BME280;45943;53.148;8.204;2023-03-17T04:55:40;100893.34;;;8.62;100.00
49216;BME280;45943;53.148;8.204;2023-03-17T04:58:06;100892.41;;;8.51;100.00
49216;BME280;45943;53.148;8.204;2023-03-17T05:00:32;100900.97;;;8.56;100.00
49216;BME280;45943;53.148;8.204;2023-03-17T05:03:03;100895.84;;;8.66;100.00
49216;BME280;45943;53.148;8.204;2023-03-17T05:05:31;100891.69;;;8.49;100.00
49216;BME280;45943;53.148;8.204;2023-03-17T05:07:57;100899.59;;;8.50;100.00
49216;BME280;45943;53.148;8.204;2023-03-17T05:10:23;100885.69;;;8.58;100.00
49216;BME280;45943;53.148;8.204;2023-03-17T05:12:49;100888.16;;;8.48;100.00
49216;BME280;45943;53.148;8.204;2023-03-17T05:15:16;100885.25;;;8.51;100.00
49216;BME280;45943;53.148;8.204;2023-03-17T05:17:42;100889.53;;;8.54;100.00
49216;BME280;45943;53.148;8.204;2023-03-17T05:20:09;100892.41;;;8.63;100.00
49216;BME280;45943;53.148;8.204;2023-03-17T05:22:35;100894.88;;;8.54;100.00
49216;BME280;45943;53.148;8.204;2023-03-17T05:25:02;100894.44;;;8.60;100.00
49216;BME280;45943;53.148;8.204;2023-03-17T05:27:29;100902.13;;;8.65;100.00
49216;BME280;45943;53.148;8.204;2023-03-17T05:29:55;100901.25;;;8.64;100.00
49216;BME280;45943;53.148;8.204;2023-03-17T05:32:22;100891.63;;;8.74;100.00
49216;BME280;45943;53.148;8.204;2023-03-17T05:34:48;100888.31;;;8.71;100.00
49216;BME280;45943;53.148;8.204;2023-03-17T05:37:14;100890.25;;;8.69;100.00
49216;BME280;45943;53.148;8.204;2023-03-17T05:39:40;100890.69;;;8.75;100.00
49216;BME280;45943;53.148;8.204;2023-03-17T05:42:06;100883.72;;;8.73;100.00
49216;BME280;45943;53.148;8.204;2023-03-17T05:44:33;100883.41;;;8.77;100.00
49216;BME280;45943;53.148;8.204;2023-03-17T05:46:59;100884.25;;;8.78;100.00
49216;BME280;45943;53.148;8.204;2023-03-17T05:49:26;100885.84;;;8.80;100.00
49216;BME280;45943;53.148;8.204;2023-03-17T05:51:53;100882.31;;;8.80;100.00
49216;BME280;45943;53.148;8.204;2023-03-17T05:54:19;100891.41;;;8.77;100.00
49216;BME280;45943;53.148;8.204;2023-03-17T05:56:46;100897.63;;;8.78;100.00
49216;BME280;45943;53.148;8.204;2023-03-17T05:59:13;100905.75;;;8.76;100.00
49216;BME280;45943;53.148;8.204;2023-03-17T06:01:43;100897.19;;;8.71;100.00
49216;BME280;45943;53.148;8.204;2023-03-17T06:04:09;100899.94;;;8.82;100.00
49216;BME280;45943;53.148;8.204;2023-03-17T06:06:35;100895.25;;;8.86;100.00
49216;BME280;45943;53.148;8.204;2023-03-17T06:09:01;100900.41;;;8.76;100.00
49216;BME280;45943;53.148;8.204;2023-03-17T06:11:27;100901.66;;;8.83;100.00
49216;BME280;45943;53.148;8.204;2023-03-17T06:13:53;100892.34;;;8.89;100.00
49216;BME280;45943;53.148;8.204;2023-03-17T06:16:19;100894.06;;;8.90;100.00
49216;BME280;45943;53.148;8.204;2023-03-17T06:18:45;100896.97;;;8.87;100.00
49216;BME280;45943;53.148;8.204;2023-03-17T06:21:11;100886.75;;;8.92;100.00
49216;BME280;45943;53.148;8.204;2023-03-17T06:23:38;100890.09;;;8.96;100.00
49216;BME280;45943;53.148;8.204;2023-03-17T06:26:04;100894.22;;;9.00;100.00
49216;BME280;45943;53.148;8.204;2023-03-17T06:28:31;100894.00;;;9.03;100.00
49216;BME280;45943;53.148;8.204;2023-03-17T06:30:57;100893.44;;;9.10;100.00
49216;BME280;45943;53.148;8.204;2023-03-17T06:33:23;100894.06;;;9.14;100.00
49216;BME280;45943;53.148;8.204;2023-03-17T06:35:49;100886.69;;;9.17;100.00
49216;BME280;45943;53.148;8.204;2023-03-17T06:38:16;100888.63;;;9.15;100.00
49216;BME280;45943;53.148;8.204;2023-03-17T06:40:42;100882.91;;;9.20;100.00
49216;BME280;45943;53.148;8.204;2023-03-17T06:43:08;100885.47;;;9.22;100.00
49216;BME280;45943;53.148;8.204;2023-03-17T06:45:34;100896.59;;;9.28;100.00
49216;BME280;45943;53.148;8.204;2023-03-17T06:48:00;100896.47;;;9.30;100.00
49216;BME280;45943;53.148;8.204;2023-03-17T06:50:26;100898.72;;;9.36;100.00
49216;BME280;45943;53.148;8.204;2023-03-17T06:52:52;100907.34;;;9.39;100.00
49216;BME280;45943;53.148;8.204;2023-03-17T06:55:18;100903.59;;;9.42;100.00
49216;BME280;45943;53.148;8.204;2023-03-17T06:57:45;100902.72;;;9.41;100.00
49216;BME280;45943;53.148;8.204;2023-03-17T07:00:11;100903.75;;;9.52;100.00
49216;BME280;45943;53.148;8.204;2023-03-17T07:02:38;100900.25;;;9.62;100.00
49216;BME280;45943;53.148;8.204;2023-03-17T07:05:05;100902.88;;;9.75;100.00
49216;BME280;45943;53.148;8.204;2023-03-17T07:07:31;100911.28;;;9.82;100.00
49216;BME280;45943;53.148;8.204;2023-03-17T07:09:57;100910.59;;;10.02;100.00
49216;BME280;45943;53.148;8.204;2023-03-17T07:12:23;100908.84;;;10.14;100.00
49216;BME280;45943;53.148;8.204;2023-03-17T07:14:49;100914.69;;;10.19;100.00
49216;BME280;45943;53.148;8.204;2023-03-17T07:17:17;100912.88;;;10.30;100.00
49216;BME280;45943;53.148;8.204;2023-03-17T07:19:44;100911.31;;;10.39;100.00
49216;BME280;45943;53.148;8.204;2023-03-17T07:22:11;100914.38;;;10.34;100.00
49216;BME280;45943;53.148;8.204;2023-03-17T07:24:38;100902.66;;;10.36;100.00
49216;BME280;45943;53.148;8.204;2023-03-17T07:27:06;100908.16;;;10.34;100.00
49216;BME280;45943;53.148;8.204;2023-03-17T07:29:34;100900.97;;;10.46;99.19
49216;BME280;45943;53.148;8.204;2023-03-17T07:32:00;100892.94;;;10.57;99.65
49216;BME280;45943;53.148;8.204;2023-03-17T07:34:27;100889.50;;;10.66;97.74
49216;BME280;45943;53.148;8.204;2023-03-17T07:36:53;100890.09;;;10.81;95.19
49216;BME280;45943;53.148;8.204;2023-03-17T07:39:19;100894.09;;;10.98;95.35
49216;BME280;45943;53.148;8.204;2023-03-17T07:41:45;100879.31;;;11.14;92.89
49216;BME280;45943;53.148;8.204;2023-03-17T07:44:17;100885.44;;;11.05;89.88
49216;BME280;45943;53.148;8.204;2023-03-17T07:46:44;100883.19;;;11.10;88.59
49216;BME280;45943;53.148;8.204;2023-03-17T07:49:11;100879.28;;;11.26;87.32
49216;BME280;45943;53.148;8.204;2023-03-17T07:51:37;100877.16;;;11.29;85.01
49216;BME280;45943;53.148;8.204;2023-03-17T07:54:03;100869.19;;;11.39;84.35
49216;BME280;45943;53.148;8.204;2023-03-17T07:56:30;100863.19;;;11.46;83.90
49216;BME280;45943;53.148;8.204;2023-03-17T07:58:57;100856.34;;;11.54;81.71
49216;BME280;45943;53.148;8.204;2023-03-17T08:01:26;100850.50;;;11.69;79.04
49216;BME280;45943;53.148;8.204;2023-03-17T08:03:53;100846.59;;;11.73;78.34
49216;BME280;45943;53.148;8.204;2023-03-17T08:06:21;100841.47;;;11.70;77.26
49216;BME280;45943;53.148;8.204;2023-03-17T08:08:50;100841.94;;;11.75;77.79
49216;BME280;45943;53.148;8.204;2023-03-17T08:11:17;100842.94;;;11.95;77.29
49216;BME280;45943;53.148;8.204;2023-03-17T08:13:43;100836.50;;;12.07;75.44
49216;BME280;45943;53.148;8.204;2023-03-17T08:16:09;100839.56;;;12.24;74.88
49216;BME280;45943;53.148;8.204;2023-03-17T08:18:35;100846.41;;;12.38;73.12
49216;BME280;45943;53.148;8.204;2023-03-17T08:21:01;100845.88;;;12.44;71.08
49216;BME280;45943;53.148;8.204;2023-03-17T08:23:27;100858.47;;;12.43;70.33
49216;BME280;45943;53.148;8.204;2023-03-17T08:25:57;100854.16;;;12.61;69.64
49216;BME280;45943;53.148;8.204;2023-03-17T08:28:25;100850.50;;;12.72;68.31
49216;BME280;45943;53.148;8.204;2023-03-17T08:30:51;100854.38;;;12.89;68.59
49216;BME280;45943;53.148;8.204;2023-03-17T08:33:17;100846.91;;;13.02;67.62
49216;BME280;45943;53.148;8.204;2023-03-17T08:35:46;100846.09;;;13.21;67.18
49216;BME280;45943;53.148;8.204;2023-03-17T08:38:12;100847.38;;;13.27;65.64
49216;BME280;45943;53.148;8.204;2023-03-17T08:40:39;100849.09;;;13.37;66.01
49216;BME280;45943;53.148;8.204;2023-03-17T08:43:05;100848.50;;;13.34;64.18
49216;BME280;45943;53.148;8.204;2023-03-17T08:45:32;100847.81;;;13.32;64.11
49216;BME280;45943;53.148;8.204;2023-03-17T08:47:58;100851.34;;;13.32;64.88
49216;BME280;45943;53.148;8.204;2023-03-17T08:50:25;100869.50;;;13.30;64.77
49216;BME280;45943;53.148;8.204;2023-03-17T08:52:51;100868.66;;;13.39;64.68
49216;BME280;45943;53.148;8.204;2023-03-17T08:55:19;100871.50;;;13.67;63.64
49216;BME280;45943;53.148;8.204;2023-03-17T08:57:45;100874.44;;;13.83;64.15
49216;BME280;45943;53.148;8.204;2023-03-17T09:00:12;100870.72;;;14.03;64.05
49216;BME280;45943;53.148;8.204;2023-03-17T09:02:41;100862.75;;;14.21;62.69
49216;BME280;45943;53.148;8.204;2023-03-17T09:05:08;100864.13;;;14.25;61.08
49216;BME280;45943;53.148;8.204;2023-03-17T09:07:36;100859.72;;;14.34;60.40
49216;BME280;45943;53.148;8.204;2023-03-17T09:10:03;100857.63;;;14.28;59.52
49216;BME280;45943;53.148;8.204;2023-03-17T09:12:44;100857.47;;;14.29;60.62
49216;BME280;45943;53.148;8.204;2023-03-17T09:15:11;100858.03;;;14.23;60.93
49216;BME280;45943;53.148;8.204;2023-03-17T09:17:37;100852.75;;;14.31;59.84
49216;BME280;45943;53.148;8.204;2023-03-17T09:20:03;100861.75;;;14.22;59.34
49216;BME280;45943;53.148;8.204;2023-03-17T09:22:31;100862.13;;;14.37;59.55
49216;BME280;45943;53.148;8.204;2023-03-17T09:24:57;100851.94;;;14.21;58.74
49216;BME280;45943;53.148;8.204;2023-03-17T09:27:29;100843.47;;;14.44;58.97
49216;BME280;45943;53.148;8.204;2023-03-17T09:29:55;100842.19;;;14.57;60.08
49216;BME280;45943;53.148;8.204;2023-03-17T09:32:39;100848.13;;;14.61;58.69
49216;BME280;45943;53.148;8.204;2023-03-17T09:35:05;100853.00;;;14.57;59.00
49216;BME280;45943;53.148;8.204;2023-03-17T09:37:31;100847.53;;;14.67;58.20
49216;BME280;45943;53.148;8.204;2023-03-17T09:39:59;100840.56;;;14.64;57.64
49216;BME280;45943;53.148;8.204;2023-03-17T09:50:13;100841.53;;;15.18;57.88
49216;BME280;45943;53.148;8.204;2023-03-17T09:52:43;100841.16;;;15.31;57.35
49216;BME280;45943;53.148;8.204;2023-03-17T09:55:11;100833.88;;;15.32;56.52
49216;BME280;45943;53.148;8.204;2023-03-17T09:57:47;100834.97;;;15.21;57.01
49216;BME280;45943;53.148;8.204;2023-03-17T10:00:17;100837.44;;;15.32;56.92
49216;BME280;45943;53.148;8.204;2023-03-17T10:02:47;100842.94;;;15.40;57.05
49216;BME280;45943;53.148;8.204;2023-03-17T10:13:14;100820.00;;;15.62;56.96
49216;BME280;45943;53.148;8.204;2023-03-17T10:16:29;100822.75;;;15.88;56.11
49216;BME280;45943;53.148;8.204;2023-03-17T10:18:43;100838.97;;;15.88;54.89
49216;BME280;45943;53.148;8.204;2023-03-17T10:21:12;100819.88;;;15.90;54.85
49216;BME280;45943;53.148;8.204;2023-03-17T10:23:42;100827.19;;;15.97;54.96
49216;BME280;45943;53.148;8.204;2023-03-17T10:26:16;100832.78;;;15.96;54.62
49216;BME280;45943;53.148;8.204;2023-03-17T10:28:56;100825.00;;;16.01;55.28
49216;BME280;45943;53.148;8.204;2023-03-17T10:31:42;100823.38;;;16.08;54.40
49216;BME280;45943;53.148;8.204;2023-03-17T10:34:16;100823.66;;;16.31;54.19
49216;BME280;45943;53.148;8.204;2023-03-17T10:36:47;100819.22;;;16.56;54.58
49216;BME280;45943;53.148;8.204;2023-03-17T10:39:17;100812.59;;;16.42;53.96
49216;BME280;45943;53.148;8.204;2023-03-17T10:41:56;100815.94;;;16.36;53.81
49216;BME280;45943;53.148;8.204;2023-03-17T10:44:37;100813.97;;;16.54;54.07
49216;BME280;45943;53.148;8.204;2023-03-17T10:47:18;100813.25;;;16.78;53.34
49216;BME280;45943;53.148;8.204;2023-03-17T10:49:47;100813.84;;;16.64;52.27
49216;BME280;45943;53.148;8.204;2023-03-17T10:52:21;100805.31;;;16.85;52.65
49216;BME280;45943;53.148;8.204;2023-03-17T10:54:52;100799.25;;;16.99;51.84
49216;BME280;45943;53.148;8.204;2023-03-17T10:57:19;100797.75;;;17.05;51.68
49216;BME280;45943;53.148;8.204;2023-03-17T10:59:52;100804.88;;;17.14;51.31
49216;BME280;45943;53.148;8.204;2023-03-17T11:02:27;100813.63;;;17.00;50.90
49216;BME280;45943;53.148;8.204;2023-03-17T11:05:06;100816.50;;;16.90;51.61
49216;BME280;45943;53.148;8.204;2023-03-17T11:07:42;100799.63;;;17.20;51.66
49216;BME280;45943;53.148;8.204;2023-03-17T11:10:13;100807.78;;;17.45;50.33
49216;BME280;45943;53.148;8.204;2023-03-17T11:12:43;100808.59;;;17.29;50.87
49216;BME280;45943;53.148;8.204;2023-03-17T11:15:10;100805.59;;;17.32;50.26
49216;BME280;45943;53.148;8.204;2023-03-17T11:17:57;100799.16;;;17.41;50.14
49216;BME280;45943;53.148;8.204;2023-03-17T11:23:32;100807.44;;;17.64;50.13
49216;BME280;45943;53.148;8.204;2023-03-17T11:37:49;100812.53;;;17.51;50.63
49216;BME280;45943;53.148;8.204;2023-03-17T11:49:27;100797.09;;;17.68;50.87
49216;BME280;45943;53.148;8.204;2023-03-17T11:52:12;100798.91;;;18.08;50.53
49216;BME280;45943;53.148;8.204;2023-03-17T11:57:52;100786.53;;;18.61;49.07
49216;BME280;45943;53.148;8.204;2023-03-17T12:03:10;100807.72;;;19.05;47.84
49216;BME280;45943;53.148;8.204;2023-03-17T12:05:44;100796.31;;;19.09;48.58
49216;BME280;45943;53.148;8.204;2023-03-17T12:11:06;100801.19;;;19.37;47.86
49216;BME280;45943;53.148;8.204;2023-03-17T12:16:16;100793.69;;;19.16;48.00
49216;BME280;45943;53.148;8.204;2023-03-17T12:21:54;100793.53;;;18.86;47.92
49216;BME280;45943;53.148;8.204;2023-03-17T12:24:29;100789.72;;;19.04;47.76
49216;BME280;45943;53.148;8.204;2023-03-17T12:27:10;100788.69;;;19.05;48.29
49216;BME280;45943;53.148;8.204;2023-03-17T12:29:43;100793.56;;;19.17;48.01
49216;BME280;45943;53.148;8.204;2023-03-17T12:35:25;100785.44;;;19.09;48.23
49216;BME280;45943;53.148;8.204;2023-03-17T12:38:06;100789.09;;;18.94;48.28
49216;BME280;45943;53.148;8.204;2023-03-17T12:46:10;100774.78;;;19.45;47.60
49216;BME280;45943;53.148;8.204;2023-03-17T12:54:09;100761.38;;;19.82;47.23
49216;BME280;45943;53.148;8.204;2023-03-17T12:56:42;100766.84;;;19.82;46.35
49216;BME280;45943;53.148;8.204;2023-03-17T12:59:14;100755.97;;;19.96;46.47
49216;BME280;45943;53.148;8.204;2023-03-17T13:01:56;100766.66;;;20.13;46.36
49216;BME280;45943;53.148;8.204;2023-03-17T13:04:31;100774.16;;;19.96;46.16
49216;BME280;45943;53.148;8.204;2023-03-17T13:09:41;100771.38;;;19.29;47.57
49216;BME280;45943;53.148;8.204;2023-03-17T13:14:59;100776.97;;;19.50;46.97
49216;BME280;45943;53.148;8.204;2023-03-17T13:17:29;100769.78;;;19.34;47.86
49216;BME280;45943;53.148;8.204;2023-03-17T13:22:34;100768.34;;;19.24;47.62
49216;BME280;45943;53.148;8.204;2023-03-17T13:25:11;100758.53;;;19.14;48.29
49216;BME280;45943;53.148;8.204;2023-03-17T13:41:18;100783.19;;;18.90;49.24
49216;BME280;45943;53.148;8.204;2023-03-17T13:46:55;100775.81;;;18.68;49.48
49216;BME280;45943;53.148;8.204;2023-03-17T13:49:40;100775.50;;;18.62;49.63
49216;BME280;45943;53.148;8.204;2023-03-17T13:52:13;100770.44;;;18.51;50.08
49216;BME280;45943;53.148;8.204;2023-03-17T13:54:49;100782.94;;;18.29;51.12
49216;BME280;45943;53.148;8.204;2023-03-17T13:57:27;100774.59;;;18.39;51.29
49216;BME280;45943;53.148;8.204;2023-03-17T14:00:15;100768.66;;;18.27;51.45
49216;BME280;45943;53.148;8.204;2023-03-17T14:03:25;100755.47;;;18.16;51.74
49216;BME280;45943;53.148;8.204;2023-03-17T14:05:45;100769.59;;;18.12;52.05
49216;BME280;45943;53.148;8.204;2023-03-17T14:08:26;100752.75;;;18.16;51.80
49216;BME280;45943;53.148;8.204;2023-03-17T14:10:57;100757.47;;;18.30;51.52
49216;BME280;45943;53.148;8.204;2023-03-17T14:13:26;100750.44;;;18.44;51.62
49216;BME280;45943;53.148;8.204;2023-03-17T14:18:41;100766.72;;;18.52;51.40
49216;BME280;45943;53.148;8.204;2023-03-17T14:21:24;100763.97;;;18.60;51.43
49216;BME280;45943;53.148;8.204;2023-03-17T14:23:59;100758.78;;;18.82;51.63
49216;BME280;45943;53.148;8.204;2023-03-17T14:26:28;100757.69;;;18.91;50.84
49216;BME280;45943;53.148;8.204;2023-03-17T14:28:59;100751.88;;;18.94;50.55
49216;BME280;45943;53.148;8.204;2023-03-17T14:31:27;100756.53;;;18.85;51.22
49216;BME280;45943;53.148;8.204;2023-03-17T14:33:54;100763.22;;;18.75;51.22
49216;BME280;45943;53.148;8.204;2023-03-17T14:36:25;100762.56;;;18.73;51.00
49216;BME280;45943;53.148;8.204;2023-03-17T14:38:53;100765.66;;;18.61;50.98
49216;BME280;45943;53.148;8.204;2023-03-17T14:41:21;100755.19;;;18.50;51.71